createdAt,value
2022-12-31T00:04:08.317Z,10.76
2022-12-31T00:09:10.667Z,10.88
2022-12-31T00:14:12.179Z,10.77
2022-12-31T00:19:13.779Z,10.77
2022-12-31T00:24:15.224Z,10.83
2022-12-31T00:29:16.684Z,10.91
2022-12-31T00:34:18.133Z,11.08
2022-12-31T00:39:19.615Z,11.14
2022-12-31T00:44:21.071Z,11.16
2022-12-31T00:49:22.567Z,11.25
2022-12-31T00:54:24.046Z,11.28
2022-12-31T00:59:25.523Z,11.19
2022-12-31T01:04:27.281Z,11.21
2022-12-31T01:09:28.735Z,11.12
2022-12-31T01:14:30.247Z,11.04
2022-12-31T01:19:31.825Z,11.08
2022-12-31T01:24:33.426Z,11.18
2022-12-31T01:29:34.997Z,11.23
2022-12-31T01:34:36.466Z,11.31
2022-12-31T01:39:37.999Z,11.21
2022-12-31T01:44:39.442Z,11.29
2022-12-31T01:49:43.566Z,11.14
2022-12-31T01:54:59.996Z,11.20
2022-12-31T02:00:02.301Z,11.20
2022-12-31T02:05:13.586Z,11.10
2022-12-31T02:10:15.147Z,11.12
2022-12-31T02:15:18.161Z,11.09
2022-12-31T02:20:34.588Z,11.19
2022-12-31T02:25:38.893Z,11.07
2022-12-31T02:30:47.000Z,11.48
2022-12-31T02:35:54.074Z,11.30
2022-12-31T02:40:56.525Z,11.29
2022-12-31T02:46:44.339Z,11.17
2022-12-31T02:51:57.304Z,11.53
2022-12-31T02:57:10.359Z,11.53
2022-12-31T03:02:16.764Z,11.34
2022-12-31T03:07:25.059Z,11.25
2022-12-31T03:12:30.973Z,11.38
2022-12-31T03:17:35.586Z,11.36
2022-12-31T03:22:40.994Z,11.62
2022-12-31T03:27:43.890Z,11.48
2022-12-31T03:32:48.730Z,11.62
2022-12-31T03:37:51.576Z,11.58
2022-12-31T03:42:53.143Z,11.68
2022-12-31T03:47:54.650Z,11.54
2022-12-31T03:52:56.715Z,11.50
2022-12-31T03:57:58.966Z,11.57
2022-12-31T04:03:00.589Z,11.60
2022-12-31T04:08:02.203Z,11.48
2022-12-31T04:13:03.683Z,11.53
2022-12-31T04:18:05.214Z,11.69
2022-12-31T04:23:06.654Z,11.72
2022-12-31T04:28:08.122Z,11.79
2022-12-31T04:33:09.667Z,11.81
2022-12-31T04:38:11.075Z,12.06
2022-12-31T04:43:12.535Z,12.12
2022-12-31T04:48:13.985Z,12.10
2022-12-31T04:53:15.431Z,12.15
2022-12-31T04:58:16.951Z,12.22
2022-12-31T05:03:19.036Z,11.97
2022-12-31T05:08:21.041Z,12.03
2022-12-31T05:13:25.723Z,12.09
2022-12-31T05:18:32.490Z,12.07
2022-12-31T05:23:34.336Z,12.21
2022-12-31T05:28:35.868Z,12.44
2022-12-31T05:33:37.383Z,12.01
2022-12-31T05:38:38.844Z,12.22
2022-12-31T05:43:40.295Z,12.24
2022-12-31T05:48:41.729Z,11.99
2022-12-31T05:53:43.179Z,11.83
2022-12-31T05:58:44.577Z,12.00
2022-12-31T06:03:46.160Z,12.08
2022-12-31T06:08:51.697Z,12.16
2022-12-31T06:13:53.308Z,11.98
2022-12-31T06:18:54.831Z,12.12
2022-12-31T06:23:57.558Z,12.41
2022-12-31T06:28:59.129Z,12.19
2022-12-31T06:34:00.720Z,12.21
2022-12-31T06:39:02.363Z,12.21
2022-12-31T06:44:04.070Z,12.50
2022-12-31T06:49:05.904Z,12.57
2022-12-31T06:54:07.700Z,12.71
2022-12-31T06:59:23.918Z,12.62
2022-12-31T07:04:28.648Z,12.56
2022-12-31T07:09:57.378Z,12.52
2022-12-31T07:15:46.943Z,12.24
2022-12-31T07:20:48.836Z,12.49
2022-12-31T07:26:08.094Z,12.55
2022-12-31T07:31:42.925Z,12.57
2022-12-31T07:36:44.379Z,12.38
2022-12-31T07:42:12.347Z,12.56
2022-12-31T07:47:21.870Z,12.45
2022-12-31T07:52:24.333Z,12.58
2022-12-31T07:57:35.319Z,12.45
2022-12-31T08:03:02.478Z,12.39
2022-12-31T08:08:28.660Z,12.57
2022-12-31T08:13:30.587Z,12.33
2022-12-31T08:18:32.320Z,12.60
2022-12-31T08:23:43.712Z,12.41
2022-12-31T08:28:55.012Z,12.57
2022-12-31T08:34:03.863Z,12.37
2022-12-31T08:39:21.042Z,12.47
2022-12-31T08:44:44.182Z,12.57
2022-12-31T08:49:46.152Z,12.79
2022-12-31T08:54:48.088Z,12.75
2022-12-31T09:00:06.941Z,12.73
2022-12-31T09:05:17.819Z,12.88
2022-12-31T09:10:31.946Z,12.90
2022-12-31T09:15:52.185Z,12.86
2022-12-31T09:20:53.896Z,13.01
2022-12-31T09:26:21.694Z,13.05
2022-12-31T09:31:37.446Z,12.97
2022-12-31T09:36:42.095Z,13.28
2022-12-31T09:54:51.848Z,13.41
2022-12-31T10:00:21.109Z,13.36
2022-12-31T10:05:46.086Z,13.20
2022-12-31T10:10:58.731Z,13.29
2022-12-31T10:16:29.647Z,13.25
2022-12-31T10:21:53.327Z,13.41
2022-12-31T10:27:13.730Z,13.34
2022-12-31T10:32:31.171Z,13.60
2022-12-31T10:38:08.380Z,13.68
2022-12-31T10:43:22.022Z,13.41
2022-12-31T10:48:44.930Z,13.45
2022-12-31T10:54:19.972Z,13.75
2022-12-31T10:59:46.575Z,13.58
2022-12-31T11:05:25.256Z,13.60
2022-12-31T11:10:56.083Z,13.55
2022-12-31T11:16:12.838Z,13.59
2022-12-31T11:21:40.987Z,13.84
2022-12-31T11:27:21.050Z,13.88
2022-12-31T11:32:52.350Z,14.12
2022-12-31T11:38:21.118Z,14.19
2022-12-31T11:43:26.205Z,13.95
2022-12-31T11:48:51.800Z,13.78
2022-12-31T11:54:08.291Z,14.19
2022-12-31T11:59:19.072Z,14.11
2022-12-31T12:04:21.563Z,14.00
2022-12-31T12:09:29.464Z,13.99
2022-12-31T12:14:32.932Z,13.87
2022-12-31T12:19:41.181Z,14.30
2022-12-31T12:24:54.621Z,14.10
2022-12-31T12:29:56.175Z,14.00
2022-12-31T12:34:57.579Z,15.08
2022-12-31T12:40:02.587Z,14.53
2022-12-31T12:45:14.097Z,14.02
2022-12-31T12:50:34.224Z,14.03
2022-12-31T12:56:01.903Z,14.24
2022-12-31T13:01:14.735Z,14.25
2022-12-31T13:06:28.151Z,14.10
2022-12-31T13:11:29.698Z,14.21
2022-12-31T13:17:00.447Z,13.99
2022-12-31T13:22:11.529Z,13.89
2022-12-31T13:27:40.686Z,13.95
2022-12-31T13:32:50.347Z,14.05
2022-12-31T13:38:04.999Z,13.85
2022-12-31T13:43:18.000Z,13.93
2022-12-31T13:48:30.360Z,13.78
2022-12-31T13:53:39.985Z,13.88
2022-12-31T13:58:57.803Z,14.02
2022-12-31T14:03:59.356Z,14.13
2022-12-31T14:09:01.330Z,14.12
2022-12-31T14:14:21.350Z,13.80
2022-12-31T14:19:56.831Z,13.79
2022-12-31T14:25:01.795Z,13.63
2022-12-31T14:30:06.135Z,13.43
2022-12-31T14:35:29.228Z,13.22
2022-12-31T14:41:28.187Z,13.22
2022-12-31T14:46:58.551Z,13.30
2022-12-31T14:52:20.694Z,12.99
2022-12-31T14:57:47.488Z,12.81
2022-12-31T15:02:59.477Z,12.86
2022-12-31T15:08:19.353Z,12.92
2022-12-31T15:13:39.425Z,13.10
2022-12-31T15:18:59.540Z,13.06
2022-12-31T15:24:02.187Z,13.09
2022-12-31T15:29:06.369Z,12.90
2022-12-31T15:34:31.705Z,12.98
2022-12-31T15:39:37.569Z,12.93
2022-12-31T15:44:51.253Z,13.09
2022-12-31T15:49:54.790Z,12.78
2022-12-31T15:54:57.902Z,12.55
2022-12-31T16:00:04.725Z,12.41
2022-12-31T16:05:06.660Z,12.41
2022-12-31T16:10:09.369Z,12.30
2022-12-31T16:15:22.094Z,12.48
2022-12-31T16:20:26.771Z,12.51
2022-12-31T16:25:32.183Z,12.52
2022-12-31T16:30:34.539Z,12.38
2022-12-31T16:35:36.925Z,12.34
2022-12-31T16:40:39.090Z,12.34
2022-12-31T16:45:41.197Z,12.34
2022-12-31T16:50:51.066Z,12.30
2022-12-31T16:56:01.562Z,12.20
2022-12-31T17:01:24.206Z,12.33
2022-12-31T17:06:26.047Z,12.32
2022-12-31T17:11:30.831Z,12.23
2022-12-31T17:16:38.383Z,12.22
2022-12-31T17:21:47.992Z,12.22
2022-12-31T17:26:51.867Z,12.18
2022-12-31T17:32:06.627Z,12.17
2022-12-31T17:37:11.667Z,12.23
2022-12-31T17:42:26.408Z,12.20
2022-12-31T17:47:39.361Z,12.16
2022-12-31T17:52:40.998Z,12.14
2022-12-31T17:57:53.193Z,12.18
2022-12-31T18:02:54.975Z,12.18
2022-12-31T18:07:56.592Z,12.08
2022-12-31T18:12:58.301Z,12.14
2022-12-31T18:17:59.739Z,12.15
2022-12-31T18:23:01.762Z,12.14
2022-12-31T18:28:09.285Z,12.12
2022-12-31T18:33:12.961Z,12.10
2022-12-31T18:38:16.165Z,12.08
2022-12-31T18:43:19.202Z,12.03
2022-12-31T18:48:20.958Z,12.01
2022-12-31T18:53:25.183Z,11.95
2022-12-31T18:58:26.873Z,11.90
2022-12-31T19:03:28.503Z,11.82
2022-12-31T19:08:30.031Z,11.73
2022-12-31T19:13:31.593Z,11.69
2022-12-31T19:18:33.547Z,11.70
2022-12-31T19:23:35.120Z,11.61
2022-12-31T19:28:36.538Z,11.58
2022-12-31T19:33:38.236Z,11.54
2022-12-31T19:38:39.766Z,11.56
2022-12-31T19:43:41.249Z,11.59
2022-12-31T19:48:46.196Z,11.52
2022-12-31T20:00:06.573Z,11.62
2022-12-31T20:05:08.498Z,11.63
2022-12-31T20:10:10.103Z,11.69
2022-12-31T20:15:11.745Z,11.65
2022-12-31T20:20:13.406Z,11.60
2022-12-31T20:25:15.180Z,11.63
2022-12-31T20:30:16.874Z,11.70
2022-12-31T20:35:19.577Z,11.76
2022-12-31T20:40:21.101Z,11.76
2022-12-31T20:45:22.606Z,11.82
2022-12-31T20:50:24.180Z,11.77
2022-12-31T20:55:25.653Z,11.71
2022-12-31T21:00:27.220Z,11.77
2022-12-31T21:05:29.296Z,11.67
2022-12-31T21:10:30.995Z,11.79
2022-12-31T21:15:32.480Z,11.76
2022-12-31T21:20:34.088Z,11.78
2022-12-31T21:25:35.624Z,11.77
2022-12-31T21:30:41.528Z,11.83
2022-12-31T21:35:50.162Z,11.79
2022-12-31T21:40:54.848Z,11.80
2022-12-31T21:46:04.061Z,11.76
2022-12-31T21:51:10.349Z,11.74
2022-12-31T21:56:12.031Z,11.70
2022-12-31T22:01:21.509Z,11.56
2022-12-31T22:06:24.481Z,11.54
2022-12-31T22:11:27.808Z,11.63
2022-12-31T22:16:29.594Z,11.54
2022-12-31T22:21:31.366Z,11.55
2022-12-31T22:26:32.918Z,11.48
2022-12-31T22:31:34.361Z,11.41
2022-12-31T22:36:35.876Z,11.34
2022-12-31T22:41:37.297Z,11.14
2022-12-31T22:46:38.853Z,11.12
2022-12-31T22:51:57.504Z,11.01
2022-12-31T22:57:01.541Z,10.81
2022-12-31T23:02:03.184Z,10.78
2022-12-31T23:07:04.662Z,10.67
2022-12-31T23:12:08.419Z,10.78
2022-12-31T23:17:29.755Z,10.53
2022-12-31T23:22:33.551Z,10.49
2022-12-31T23:27:35.011Z,10.39
2022-12-31T23:32:36.582Z,10.36
2022-12-31T23:37:38.093Z,10.40
2022-12-31T23:42:39.761Z,10.37
2022-12-31T23:47:41.620Z,10.38
2022-12-31T23:52:43.050Z,10.40
2022-12-31T23:57:44.607Z,10.42
